sensor_id;sensor_type;location;lat;lon;timestamp;pressure;altitude;pressure_sealevel;temperature;humidity
76990;BME280;65924;47.250;11.332;2023-04-24T00:00:29;93959.78;;;12.21;70.16
76990;BME280;65924;47.250;11.332;2023-04-24T00:01:09;93966.44;;;12.17;69.87
76990;BME280;65924;47.250;11.332;2023-04-24T00:01:48;93978.89;;;12.13;68.37
76990;BME280;65924;47.250;11.332;2023-04-24T00:02:27;93970.83;;;12.07;68.30
76990;BME280;65924;47.250;11.332;2023-04-24T00:03:06;93969.01;;;12.03;68.94
76990;BME280;65924;47.250;11.332;2023-04-24T00:03:45;93982.14;;;11.98;68.28
76990;BME280;65924;47.250;11.332;2023-04-24T00:04:23;93971.79;;;11.94;67.89
76990;BME280;65924;47.250;11.332;2023-04-24T00:05:05;93964.25;;;11.85;71.72
76990;BME280;65924;47.250;11.332;2023-04-24T00:05:44;93966.99;;;11.81;73.67
76990;BME280;65924;47.250;11.332;2023-04-24T00:06:23;93974.54;;;11.74;73.39
76990;BME280;65924;47.250;11.332;2023-04-24T00:07:02;93983.64;;;11.73;74.09
76990;BME280;65924;47.250;11.332;2023-04-24T00:07:42;93983.15;;;11.73;74.18
76990;BME280;65924;47.250;11.332;2023-04-24T00:08:20;93992.03;;;11.73;73.26
76990;BME280;65924;47.250;11.332;2023-04-24T00:09:01;93987.98;;;11.72;70.25
76990;BME280;65924;47.250;11.332;2023-04-24T00:09:40;93985.67;;;11.69;69.81
76990;BME280;65924;47.250;11.332;2023-04-24T00:10:18;93982.95;;;11.65;69.73
76990;BME280;65924;47.250;11.332;2023-04-24T00:10:58;93993.31;;;11.63;70.52
76990;BME280;65924;47.250;11.332;2023-04-24T00:11:39;93987.30;;;11.62;70.28
76990;BME280;65924;47.250;11.332;2023-04-24T00:12:17;93990.64;;;11.60;70.28
76990;BME280;65924;47.250;11.332;2023-04-24T00:12:56;93987.54;;;11.57;70.98
76990;BME280;65924;47.250;11.332;2023-04-24T00:13:35;93984.68;;;11.52;71.67
76990;BME280;65924;47.250;11.332;2023-04-24T00:14:13;93988.94;;;11.49;72.68
76990;BME280;65924;47.250;11.332;2023-04-24T00:14:52;93993.30;;;11.48;72.26
76990;BME280;65924;47.250;11.332;2023-04-24T00:15:31;93995.79;;;11.45;72.21
76990;BME280;65924;47.250;11.332;2023-04-24T00:16:10;94004.39;;;11.42;71.40
76990;BME280;65924;47.250;11.332;2023-04-24T00:16:48;93999.45;;;11.39;72.27
76990;BME280;65924;47.250;11.332;2023-04-24T00:17:27;93998.48;;;11.39;72.29
76990;BME280;65924;47.250;11.332;2023-04-24T00:18:05;93989.50;;;11.38;72.05
76990;BME280;65924;47.250;11.332;2023-04-24T00:18:44;93999.61;;;11.40;72.23
76990;BME280;65924;47.250;11.332;2023-04-24T00:19:31;93995.26;;;11.39;71.68
76990;BME280;65924;47.250;11.332;2023-04-24T00:20:10;93993.04;;;11.37;72.10
76990;BME280;65924;47.250;11.332;2023-04-24T00:20:49;93994.80;;;11.38;72.49
76990;BME280;65924;47.250;11.332;2023-04-24T00:21:27;93994.42;;;11.39;72.42
76990;BME280;65924;47.250;11.332;2023-04-24T00:22:06;93992.94;;;11.38;71.62
76990;BME280;65924;47.250;11.332;2023-04-24T00:22:45;93996.80;;;11.36;72.29
76990;BME280;65924;47.250;11.332;2023-04-24T00:23:24;93996.41;;;11.37;72.23
76990;BME280;65924;47.250;11.332;2023-04-24T00:24:02;93992.02;;;11.37;72.82
76990;BME280;65924;47.250;11.332;2023-04-24T00:24:41;93995.11;;;11.41;72.96
76990;BME280;65924;47.250;11.332;2023-04-24T00:25:20;93994.08;;;11.43;72.79
76990;BME280;65924;47.250;11.332;2023-04-24T00:25:58;93995.20;;;11.46;73.38
76990;BME280;65924;47.250;11.332;2023-04-24T00:26:37;93996.64;;;11.49;73.36
76990;BME280;65924;47.250;11.332;2023-04-24T00:27:16;93995.52;;;11.53;73.94
76990;BME280;65924;47.250;11.332;2023-04-24T00:27:54;94001.83;;;11.55;72.32
76990;BME280;65924;47.250;11.332;2023-04-24T00:28:33;93995.48;;;11.55;73.08
76990;BME280;65924;47.250;11.332;2023-04-24T00:29:11;93993.63;;;11.57;72.61
76990;BME280;65924;47.250;11.332;2023-04-24T00:29:50;93998.23;;;11.57;72.49
76990;BME280;65924;47.250;11.332;2023-04-24T00:30:29;94001.11;;;11.53;74.38
76990;BME280;65924;47.250;11.332;2023-04-24T00:31:07;93997.94;;;11.49;74.64
76990;BME280;65924;47.250;11.332;2023-04-24T00:31:47;94002.73;;;11.49;75.38
76990;BME280;65924;47.250;11.332;2023-04-24T00:32:26;93998.63;;;11.47;75.88
76990;BME280;65924;47.250;11.332;2023-04-24T00:33:04;94008.80;;;11.50;75.90
76990;BME280;65924;47.250;11.332;2023-04-24T00:33:43;94000.27;;;11.50;75.98
76990;BME280;65924;47.250;11.332;2023-04-24T00:34:21;94002.08;;;11.51;76.33
76990;BME280;65924;47.250;11.332;2023-04-24T00:35:00;94000.53;;;11.51;75.65
76990;BME280;65924;47.250;11.332;2023-04-24T00:35:39;94003.88;;;11.50;74.63
76990;BME280;65924;47.250;11.332;2023-04-24T00:36:18;94003.05;;;11.47;74.49
76990;BME280;65924;47.250;11.332;2023-04-24T00:36:58;94005.47;;;11.47;75.72
76990;BME280;65924;47.250;11.332;2023-04-24T00:37:37;94001.09;;;11.49;76.63
76990;BME280;65924;47.250;11.332;2023-04-24T00:38:16;94002.15;;;11.50;76.18
76990;BME280;65924;47.250;11.332;2023-04-24T00:38:54;94000.92;;;11.53;76.66
76990;BME280;65924;47.250;11.332;2023-04-24T00:39:33;94003.36;;;11.57;77.21
76990;BME280;65924;47.250;11.332;2023-04-24T00:40:12;94004.25;;;11.60;77.38
76990;BME280;65924;47.250;11.332;2023-04-24T00:40:51;94005.96;;;11.62;76.67
76990;BME280;65924;47.250;11.332;2023-04-24T00:41:29;94004.55;;;11.65;77.52
76990;BME280;65924;47.250;11.332;2023-04-24T00:42:08;94003.77;;;11.68;77.02
76990;BME280;65924;47.250;11.332;2023-04-24T00:42:50;94005.80;;;11.71;77.09
76990;BME280;65924;47.250;11.332;2023-04-24T00:43:29;94007.23;;;11.74;76.74
76990;BME280;65924;47.250;11.332;2023-04-24T00:44:07;94008.27;;;11.76;76.66
76990;BME280;65924;47.250;11.332;2023-04-24T00:44:46;94007.41;;;11.78;76.78
76990;BME280;65924;47.250;11.332;2023-04-24T00:45:25;94007.75;;;11.80;75.76
76990;BME280;65924;47.250;11.332;2023-04-24T00:46:04;94009.17;;;11.82;75.81
76990;BME280;65924;47.250;11.332;2023-04-24T00:46:43;94009.23;;;11.83;75.25
76990;BME280;65924;47.250;11.332;2023-04-24T00:47:22;94006.38;;;11.84;75.07
76990;BME280;65924;47.250;11.332;2023-04-24T00:48:05;94008.95;;;11.86;73.69
76990;BME280;65924;47.250;11.332;2023-04-24T00:48:43;94005.46;;;11.85;73.42
76990;BME280;65924;47.250;11.332;2023-04-24T00:49:22;94007.99;;;11.85;73.21
76990;BME280;65924;47.250;11.332;2023-04-24T00:50:02;94014.70;;;11.87;73.66
76990;BME280;65924;47.250;11.332;2023-04-24T00:50:41;94010.30;;;11.84;71.78
76990;BME280;65924;47.250;11.332;2023-04-24T00:51:20;94015.00;;;11.83;72.30
76990;BME280;65924;47.250;11.332;2023-04-24T00:51:59;94011.59;;;11.81;71.95
76990;BME280;65924;47.250;11.332;2023-04-24T00:52:38;94009.59;;;11.80;72.35
76990;BME280;65924;47.250;11.332;2023-04-24T00:53:19;94010.81;;;11.82;73.18
76990;BME280;65924;47.250;11.332;2023-04-24T00:53:57;94010.95;;;11.85;73.58
76990;BME280;65924;47.250;11.332;2023-04-24T00:54:36;94009.21;;;11.87;73.64
76990;BME280;65924;47.250;11.332;2023-04-24T00:55:14;94011.88;;;11.91;74.13
76990;BME280;65924;47.250;11.332;2023-04-24T00:55:53;94013.93;;;11.95;74.68
76990;BME280;65924;47.250;11.332;2023-04-24T00:56:32;94020.26;;;11.96;72.33
76990;BME280;65924;47.250;11.332;2023-04-24T00:57:12;94009.95;;;11.94;71.54
76990;BME280;65924;47.250;11.332;2023-04-24T00:57:53;94013.04;;;11.93;72.72
76990;BME280;65924;47.250;11.332;2023-04-24T00:58:32;94011.89;;;11.95;73.12
76990;BME280;65924;47.250;11.332;2023-04-24T00:59:16;94012.65;;;11.98;73.93
76990;BME280;65924;47.250;11.332;2023-04-24T00:59:55;94010.96;;;12.02;73.81
76990;BME280;65924;47.250;11.332;2023-04-24T01:00:34;94012.96;;;12.04;73.80
76990;BME280;65924;47.250;11.332;2023-04-24T01:01:13;94015.36;;;12.09;73.67
76990;BME280;65924;47.250;11.332;2023-04-24T01:01:52;94012.65;;;12.10;72.89
76990;BME280;65924;47.250;11.332;2023-04-24T01:02:32;94014.67;;;12.13;73.49
76990;BME280;65924;47.250;11.332;2023-04-24T01:03:12;94015.30;;;12.15;73.08
76990;BME280;65924;47.250;11.332;2023-04-24T01:03:52;94020.40;;;12.16;72.36
76990;BME280;65924;47.250;11.332;2023-04-24T01:04:31;94018.52;;;12.13;72.02
76990;BME280;65924;47.250;11.332;2023-04-24T01:05:12;94018.20;;;12.13;71.83
76990;BME280;65924;47.250;11.332;2023-04-24T01:05:52;94019.77;;;12.13;71.64
76990;BME280;65924;47.250;11.332;2023-04-24T01:06:33;94020.40;;;12.12;71.98
76990;BME280;65924;47.250;11.332;2023-04-24T01:07:12;94022.80;;;12.11;72.61
76990;BME280;65924;47.250;11.332;2023-04-24T01:07:53;94025.14;;;12.14;72.53
76990;BME280;65924;47.250;11.332;2023-04-24T01:08:32;94021.89;;;12.12;71.28
76990;BME280;65924;47.250;11.332;2023-04-24T01:09:12;94027.11;;;12.11;73.04
76990;BME280;65924;47.250;11.332;2023-04-24T01:09:52;94025.30;;;12.10;73.29
76990;BME280;65924;47.250;11.332;2023-04-24T01:10:33;94031.20;;;12.09;73.15
76990;BME280;65924;47.250;11.332;2023-04-24T01:11:13;94025.68;;;12.03;73.47
76990;BME280;65924;47.250;11.332;2023-04-24T01:11:51;94025.46;;;11.98;74.39
76990;BME280;65924;47.250;11.332;2023-04-24T01:12:31;94025.56;;;11.96;75.58
76990;BME280;65924;47.250;11.332;2023-04-24T01:13:10;94020.08;;;11.97;75.37
76990;BME280;65924;47.250;11.332;2023-04-24T01:13:49;94022.84;;;11.98;76.32
76990;BME280;65924;47.250;11.332;2023-04-24T01:14:28;94024.32;;;11.99;75.36
76990;BME280;65924;47.250;11.332;2023-04-24T01:15:07;94021.83;;;11.98;75.39
76990;BME280;65924;47.250;11.332;2023-04-24T01:15:47;94024.50;;;11.99;76.04
76990;BME280;65924;47.250;11.332;2023-04-24T01:16:25;94022.11;;;11.99;84.71
76990;BME280;65924;47.250;11.332;2023-04-24T01:17:06;94025.14;;;12.01;87.04
76990;BME280;65924;47.250;11.332;2023-04-24T01:17:45;94025.02;;;12.05;87.13
76990;BME280;65924;47.250;11.332;2023-04-24T01:18:26;94025.73;;;12.07;86.68
76990;BME280;65924;47.250;11.332;2023-04-24T01:19:06;94023.98;;;12.07;84.17
76990;BME280;65924;47.250;11.332;2023-04-24T01:19:45;94024.64;;;12.08;83.57
76990;BME280;65924;47.250;11.332;2023-04-24T01:20:24;94018.27;;;12.08;80.71
76990;BME280;65924;47.250;11.332;2023-04-24T01:21:05;94021.79;;;12.13;78.76
76990;BME280;65924;47.250;11.332;2023-04-24T01:21:47;94024.02;;;12.17;77.95
76990;BME280;65924;47.250;11.332;2023-04-24T01:22:26;94021.84;;;12.19;77.19
76990;BME280;65924;47.250;11.332;2023-04-24T01:23:06;94024.51;;;12.19;77.51
76990;BME280;65924;47.250;11.332;2023-04-24T01:23:45;94022.30;;;12.21;78.36
76990;BME280;65924;47.250;11.332;2023-04-24T01:24:24;94023.52;;;12.23;77.93
76990;BME280;65924;47.250;11.332;2023-04-24T01:25:03;94026.23;;;12.26;77.95
76990;BME280;65924;47.250;11.332;2023-04-24T01:25:42;94026.52;;;12.28;77.67
76990;BME280;65924;47.250;11.332;2023-04-24T01:26:21;94031.73;;;12.33;77.64
76990;BME280;65924;47.250;11.332;2023-04-24T01:27:00;94026.89;;;12.36;77.89
76990;BME280;65924;47.250;11.332;2023-04-24T01:27:39;94031.93;;;12.39;77.66
76990;BME280;65924;47.250;11.332;2023-04-24T01:28:18;94033.94;;;12.41;77.23
76990;BME280;65924;47.250;11.332;2023-04-24T01:28:57;94036.13;;;12.44;76.94
76990;BME280;65924;47.250;11.332;2023-04-24T01:29:36;94035.66;;;12.46;76.45
76990;BME280;65924;47.250;11.332;2023-04-24T01:30:15;94035.04;;;12.47;76.56
76990;BME280;65924;47.250;11.332;2023-04-24T01:30:53;94038.08;;;12.49;77.03
76990;BME280;65924;47.250;11.332;2023-04-24T01:31:35;94038.55;;;12.52;76.67
76990;BME280;65924;47.250;11.332;2023-04-24T01:32:14;94038.00;;;12.54;76.35
76990;BME280;65924;47.250;11.332;2023-04-24T01:32:53;94038.63;;;12.57;75.66
76990;BME280;65924;47.250;11.332;2023-04-24T01:33:31;94039.60;;;12.55;74.49
76990;BME280;65924;47.250;11.332;2023-04-24T01:34:10;94040.23;;;12.54;75.69
76990;BME280;65924;47.250;11.332;2023-04-24T01:34:50;94040.70;;;12.52;76.39
76990;BME280;65924;47.250;11.332;2023-04-24T01:35:29;94039.12;;;12.53;77.15
76990;BME280;65924;47.250;11.332;2023-04-24T01:36:09;94040.66;;;12.55;77.25
76990;BME280;65924;47.250;11.332;2023-04-24T01:36:48;94040.98;;;12.57;76.91
76990;BME280;65924;47.250;11.332;2023-04-24T01:37:27;94040.98;;;12.59;76.63
76990;BME280;65924;47.250;11.332;2023-04-24T01:38:05;94040.14;;;12.62;76.17
76990;BME280;65924;47.250;11.332;2023-04-24T01:38:44;94044.89;;;12.64;75.77
76990;BME280;65924;47.250;11.332;2023-04-24T01:39:23;94043.27;;;12.65;75.91
76990;BME280;65924;47.250;11.332;2023-04-24T01:40:06;94044.21;;;12.68;77.38
76990;BME280;65924;47.250;11.332;2023-04-24T01:40:46;94042.88;;;12.69;76.38
76990;BME280;65924;47.250;11.332;2023-04-24T01:41:25;94045.54;;;12.70;76.93
76990;BME280;65924;47.250;11.332;2023-04-24T01:42:04;94046.24;;;12.72;77.87
76990;BME280;65924;47.250;11.332;2023-04-24T01:42:45;94046.63;;;12.73;76.86
76990;BME280;65924;47.250;11.332;2023-04-24T01:43:23;94045.73;;;12.73;76.24
76990;BME280;65924;47.250;11.332;2023-04-24T01:44:02;94043.05;;;12.75;75.73
76990;BME280;65924;47.250;11.332;2023-04-24T01:44:42;94045.10;;;12.75;75.48
76990;BME280;65924;47.250;11.332;2023-04-24T01:45:20;94048.80;;;12.75;75.14
76990;BME280;65924;47.250;11.332;2023-04-24T01:45:59;94046.48;;;12.77;75.88
76990;BME280;65924;47.250;11.332;2023-04-24T01:46:37;94049.20;;;12.77;75.36
76990;BME280;65924;47.250;11.332;2023-04-24T01:47:16;94045.86;;;12.76;75.81
76990;BME280;65924;47.250;11.332;2023-04-24T01:47:56;94047.84;;;12.77;75.86
76990;BME280;65924;47.250;11.332;2023-04-24T01:48:36;94047.02;;;12.79;76.38
76990;BME280;65924;47.250;11.332;2023-04-24T01:49:14;94045.68;;;12.78;74.96
76990;BME280;65924;47.250;11.332;2023-04-24T01:49:53;94046.54;;;12.78;74.73
76990;BME280;65924;47.250;11.332;2023-04-24T01:50:32;94049.31;;;12.78;74.50
76990;BME280;65924;47.250;11.332;2023-04-24T01:51:11;94049.15;;;12.78;74.84
76990;BME280;65924;47.250;11.332;2023-04-24T01:51:49;94051.14;;;12.78;74.64
76990;BME280;65924;47.250;11.332;2023-04-24T01:52:28;94051.47;;;12.78;74.33
76990;BME280;65924;47.250;11.332;2023-04-24T01:53:12;94050.52;;;12.80;73.81
76990;BME280;65924;47.250;11.332;2023-04-24T01:53:51;94049.93;;;12.81;73.96
76990;BME280;65924;47.250;11.332;2023-04-24T01:54:29;94053.11;;;12.81;74.03
76990;BME280;65924;47.250;11.332;2023-04-24T01:55:08;94053.63;;;12.83;75.37
76990;BME280;65924;47.250;11.332;2023-04-24T01:55:47;94052.61;;;12.85;75.73
76990;BME280;65924;47.250;11.332;2023-04-24T01:56:29;94056.36;;;12.87;75.22
76990;BME280;65924;47.250;11.332;2023-04-24T01:57:08;94055.94;;;12.88;75.02
76990;BME280;65924;47.250;11.332;2023-04-24T01:57:52;94056.27;;;12.90;75.05
76990;BME280;65924;47.250;11.332;2023-04-24T01:58:33;94058.30;;;12.90;74.34
76990;BME280;65924;47.250;11.332;2023-04-24T01:59:12;94057.38;;;12.91;75.06
76990;BME280;65924;47.250;11.332;2023-04-24T01:59:51;94055.83;;;12.91;74.89
76990;BME280;65924;47.250;11.332;2023-04-24T02:00:30;94055.66;;;12.92;74.49
76990;BME280;65924;47.250;11.332;2023-04-24T02:01:09;94058.77;;;12.91;74.54
76990;BME280;65924;47.250;11.332;2023-04-24T02:01:47;94053.77;;;12.90;75.52
76990;BME280;65924;47.250;11.332;2023-04-24T02:02:26;94057.39;;;12.93;75.86
76990;BME280;65924;47.250;11.332;2023-04-24T02:03:09;94057.35;;;12.94;74.77
76990;BME280;65924;47.250;11.332;2023-04-24T02:03:47;94058.73;;;12.91;73.64
76990;BME280;65924;47.250;11.332;2023-04-24T02:04:26;94060.80;;;12.89;74.00
76990;BME280;65924;47.250;11.332;2023-04-24T02:05:06;94060.19;;;12.88;73.94
76990;BME280;65924;47.250;11.332;2023-04-24T02:05:48;94063.77;;;12.88;75.06
76990;BME280;65924;47.250;11.332;2023-04-24T02:06:26;94065.63;;;12.88;75.14
76990;BME280;65924;47.250;11.332;2023-04-24T02:07:05;94063.40;;;12.89;75.38
76990;BME280;65924;47.250;11.332;2023-04-24T02:07:44;94065.77;;;12.89;74.79
76990;BME280;65924;47.250;11.332;2023-04-24T02:08:23;94063.89;;;12.89;75.60
76990;BME280;65924;47.250;11.332;2023-04-24T02:09:02;94062.67;;;12.89;75.54
76990;BME280;65924;47.250;11.332;2023-04-24T02:09:41;94066.07;;;12.89;75.62
76990;BME280;65924;47.250;11.332;2023-04-24T02:10:20;94068.33;;;12.89;75.57
76990;BME280;65924;47.250;11.332;2023-04-24T02:10:58;94064.45;;;12.88;75.44
76990;BME280;65924;47.250;11.332;2023-04-24T02:11:37;94063.31;;;12.88;75.91
76990;BME280;65924;47.250;11.332;2023-04-24T02:12:16;94068.61;;;12.88;75.56
76990;BME280;65924;47.250;11.332;2023-04-24T02:12:56;94064.46;;;12.86;74.97
76990;BME280;65924;47.250;11.332;2023-04-24T02:13:36;94065.58;;;12.83;74.44
76990;BME280;65924;47.250;11.332;2023-04-24T02:14:14;94067.49;;;12.81;73.84
76990;BME280;65924;47.250;11.332;2023-04-24T02:14:53;94068.45;;;12.79;74.31
76990;BME280;65924;47.250;11.332;2023-04-24T02:15:31;94065.62;;;12.76;73.41
76990;BME280;65924;47.250;11.332;2023-04-24T02:16:10;94066.71;;;12.74;73.98
76990;BME280;65924;47.250;11.332;2023-04-24T02:16:49;94066.97;;;12.71;73.25
76990;BME280;65924;47.250;11.332;2023-04-24T02:17:27;94065.46;;;12.66;72.17
76990;BME280;65924;47.250;11.332;2023-04-24T02:18:06;94066.72;;;12.61;72.83
76990;BME280;65924;47.250;11.332;2023-04-24T02:18:45;94067.82;;;12.58;73.03
76990;BME280;65924;47.250;11.332;2023-04-24T02:19:23;94065.71;;;12.57;73.20
76990;BME280;65924;47.250;11.332;2023-04-24T02:20:03;94066.02;;;12.57;73.38
76990;BME280;65924;47.250;11.332;2023-04-24T02:20:43;94064.92;;;12.54;72.70
76990;BME280;65924;47.250;11.332;2023-04-24T02:21:22;94066.61;;;12.52;72.93
76990;BME280;65924;47.250;11.332;2023-04-24T02:22:00;94065.38;;;12.51;72.22
76990;BME280;65924;47.250;11.332;2023-04-24T02:22:39;94065.96;;;12.48;72.24
76990;BME280;65924;47.250;11.332;2023-04-24T02:23:18;94063.73;;;12.46;72.68
76990;BME280;65924;47.250;11.332;2023-04-24T02:23:58;94066.77;;;12.47;72.61
76990;BME280;65924;47.250;11.332;2023-04-24T02:24:37;94064.71;;;12.46;72.94
76990;BME280;65924;47.250;11.332;2023-04-24T02:25:16;94065.38;;;12.47;73.25
76990;BME280;65924;47.250;11.332;2023-04-24T02:25:55;94066.59;;;12.47;72.66
76990;BME280;65924;47.250;11.332;2023-04-24T02:26:34;94065.04;;;12.45;71.97
76990;BME280;65924;47.250;11.332;2023-04-24T02:27:12;94063.98;;;12.41;71.44
76990;BME280;65924;47.250;11.332;2023-04-24T02:27:51;94062.48;;;12.36;71.22
76990;BME280;65924;47.250;11.332;2023-04-24T02:28:30;94062.50;;;12.32;71.79
76990;BME280;65924;47.250;11.332;2023-04-24T02:29:08;94061.48;;;12.28;71.74
76990;BME280;65924;47.250;11.332;2023-04-24T02:29:47;94063.60;;;12.27;72.44
76990;BME280;65924;47.250;11.332;2023-04-24T02:30:25;94063.75;;;12.25;72.50
76990;BME280;65924;47.250;11.332;2023-04-24T02:31:04;94063.58;;;12.23;71.16
76990;BME280;65924;47.250;11.332;2023-04-24T02:31:44;94062.58;;;12.19;71.59
76990;BME280;65924;47.250;11.332;2023-04-24T02:32:26;94058.55;;;12.15;71.02
76990;BME280;65924;47.250;11.332;2023-04-24T02:33:05;94056.41;;;12.13;71.82
76990;BME280;65924;47.250;11.332;2023-04-24T02:33:43;94055.98;;;12.10;70.84
76990;BME280;65924;47.250;11.332;2023-04-24T02:34:22;94054.80;;;12.05;70.86
76990;BME280;65924;47.250;11.332;2023-04-24T02:35:01;94056.23;;;12.02;70.81
76990;BME280;65924;47.250;11.332;2023-04-24T02:35:39;94050.04;;;11.97;70.84
76990;BME280;65924;47.250;11.332;2023-04-24T02:36:18;94049.36;;;11.93;70.52
76990;BME280;65924;47.250;11.332;2023-04-24T02:36:57;94052.07;;;11.86;72.03
76990;BME280;65924;47.250;11.332;2023-04-24T02:37:36;94058.23;;;11.81;70.89
76990;BME280;65924;47.250;11.332;2023-04-24T02:38:14;94056.88;;;11.75;70.84
76990;BME280;65924;47.250;11.332;2023-04-24T02:38:55;94054.19;;;11.70;71.73
76990;BME280;65924;47.250;11.332;2023-04-24T02:39:33;94056.51;;;11.69;71.13
76990;BME280;65924;47.250;11.332;2023-04-24T02:40:12;94057.09;;;11.68;72.04
76990;BME280;65924;47.250;11.332;2023-04-24T02:40:50;94056.80;;;11.69;72.33
76990;BME280;65924;47.250;11.332;2023-04-24T02:41:29;94056.27;;;11.70;72.34
76990;BME280;65924;47.250;11.332;2023-04-24T02:42:10;94055.00;;;11.71;72.55
76990;BME280;65924;47.250;11.332;2023-04-24T02:42:48;94052.70;;;11.69;71.98
76990;BME280;65924;47.250;11.332;2023-04-24T02:43:28;94056.17;;;11.71;73.72
76990;BME280;65924;47.250;11.332;2023-04-24T02:44:06;94052.95;;;11.73;73.83
76990;BME280;65924;47.250;11.332;2023-04-24T02:44:45;94057.23;;;11.75;73.48
76990;BME280;65924;47.250;11.332;2023-04-24T02:45:23;94050.42;;;11.75;72.47
76990;BME280;65924;47.250;11.332;2023-04-24T02:46:02;94050.17;;;11.74;72.91
76990;BME280;65924;47.250;11.332;2023-04-24T02:46:41;94051.40;;;11.75;73.25
76990;BME280;65924;47.250;11.332;2023-04-24T02:47:20;94051.23;;;11.78;73.53
76990;BME280;65924;47.250;11.332;2023-04-24T02:48:01;94049.48;;;11.80;74.15
76990;BME280;65924;47.250;11.332;2023-04-24T02:48:40;94048.14;;;11.82;73.72
76990;BME280;65924;47.250;11.332;2023-04-24T02:49:18;94048.80;;;11.84;73.72
76990;BME280;65924;47.250;11.332;2023-04-24T02:49:57;94045.42;;;11.86;73.65
76990;BME280;65924;47.250;11.332;2023-04-24T02:50:35;94043.40;;;11.88;74.00
76990;BME280;65924;47.250;11.332;2023-04-24T02:51:14;94044.69;;;11.92;74.81
76990;BME280;65924;47.250;11.332;2023-04-24T02:51:53;94044.71;;;11.93;74.38
76990;BME280;65924;47.250;11.332;2023-04-24T02:52:31;94046.67;;;11.96;75.74
76990;BME280;65924;47.250;11.332;2023-04-24T02:53:10;94048.60;;;12.00;76.11
76990;BME280;65924;47.250;11.332;2023-04-24T02:53:48;94047.81;;;12.03;75.79
76990;BME280;65924;47.250;11.332;2023-04-24T02:54:27;94047.79;;;12.06;76.68
76990;BME280;65924;47.250;11.332;2023-04-24T02:55:06;94048.58;;;12.09;76.01
76990;BME280;65924;47.250;11.332;2023-04-24T02:55:46;94044.36;;;12.10;75.83
76990;BME280;65924;47.250;11.332;2023-04-24T02:56:24;94043.70;;;12.12;76.70
76990;BME280;65924;47.250;11.332;2023-04-24T02:57:03;94046.64;;;12.13;76.36
76990;BME280;65924;47.250;11.332;2023-04-24T02:57:42;94047.58;;;12.14;76.14
76990;BME280;65924;47.250;11.332;2023-04-24T02:58:21;94045.98;;;12.15;76.12
76990;BME280;65924;47.250;11.332;2023-04-24T02:58:59;94047.64;;;12.16;76.26
76990;BME280;65924;47.250;11.332;2023-04-24T02:59:38;94049.77;;;12.17;75.94
76990;BME280;65924;47.250;11.332;2023-04-24T03:00:17;94048.08;;;12.17;75.65
76990;BME280;65924;47.250;11.332;2023-04-24T03:00:55;94049.16;;;12.16;74.94
76990;BME280;65924;47.250;11.332;2023-04-24T03:01:34;94051.55;;;12.16;74.58
76990;BME280;65924;47.250;11.332;2023-04-24T03:02:12;94048.34;;;12.15;74.28
76990;BME280;65924;47.250;11.332;2023-04-24T03:02:51;94049.23;;;12.15;74.34
76990;BME280;65924;47.250;11.332;2023-04-24T03:03:30;94051.22;;;12.16;74.45
76990;BME280;65924;47.250;11.332;2023-04-24T03:04:08;94045.87;;;12.17;74.42
76990;BME280;65924;47.250;11.332;2023-04-24T03:04:48;94048.51;;;12.17;74.30
76990;BME280;65924;47.250;11.332;2023-04-24T03:05:27;94047.92;;;12.18;74.56
76990;BME280;65924;47.250;11.332;2023-04-24T03:06:09;94046.30;;;12.19;74.50
76990;BME280;65924;47.250;11.332;2023-04-24T03:06:47;94044.85;;;12.21;74.01
76990;BME280;65924;47.250;11.332;2023-04-24T03:07:26;94042.03;;;12.22;74.07
76990;BME280;65924;47.250;11.332;2023-04-24T03:08:05;94044.61;;;12.23;74.31
76990;BME280;65924;47.250;11.332;2023-04-24T03:08:44;94045.97;;;12.26;75.35
76990;BME280;65924;47.250;11.332;2023-04-24T03:09:23;94043.80;;;12.27;74.63
76990;BME280;65924;47.250;11.332;2023-04-24T03:10:02;94040.65;;;12.27;74.34
76990;BME280;65924;47.250;11.332;2023-04-24T03:10:40;94043.95;;;12.30;73.93
76990;BME280;65924;47.250;11.332;2023-04-24T03:11:20;94043.85;;;12.31;73.81
76990;BME280;65924;47.250;11.332;2023-04-24T03:11:58;94044.61;;;12.32;74.35
76990;BME280;65924;47.250;11.332;2023-04-24T03:12:37;94043.66;;;12.34;74.52
76990;BME280;65924;47.250;11.332;2023-04-24T03:13:16;94044.59;;;12.34;73.74
76990;BME280;65924;47.250;11.332;2023-04-24T03:13:55;94042.35;;;12.35;73.93
76990;BME280;65924;47.250;11.332;2023-04-24T03:14:34;94040.89;;;12.36;74.43
76990;BME280;65924;47.250;11.332;2023-04-24T03:15:13;94036.71;;;12.37;73.89
76990;BME280;65924;47.250;11.332;2023-04-24T03:15:51;94037.41;;;12.37;73.51
76990;BME280;65924;47.250;11.332;2023-04-24T03:16:31;94034.13;;;12.37;73.38
76990;BME280;65924;47.250;11.332;2023-04-24T03:17:11;94032.23;;;12.38;73.71
76990;BME280;65924;47.250;11.332;2023-04-24T03:17:49;94035.01;;;12.39;73.86
76990;BME280;65924;47.250;11.332;2023-04-24T03:18:28;94034.06;;;12.40;74.58
76990;BME280;65924;47.250;11.332;2023-04-24T03:19:06;94033.48;;;12.41;74.79
76990;BME280;65924;47.250;11.332;2023-04-24T03:19:47;94033.95;;;12.41;74.16
76990;BME280;65924;47.250;11.332;2023-04-24T03:20:25;94031.04;;;12.42;74.31
76990;BME280;65924;47.250;11.332;2023-04-24T03:21:05;94029.77;;;12.42;74.39
76990;BME280;65924;47.250;11.332;2023-04-24T03:21:44;94027.85;;;12.41;73.77
76990;BME280;65924;47.250;11.332;2023-04-24T03:22:22;94032.27;;;12.41;73.54
76990;BME280;65924;47.250;11.332;2023-04-24T03:23:01;94029.77;;;12.40;74.18
76990;BME280;65924;47.250;11.332;2023-04-24T03:23:41;94032.49;;;12.40;74.37
76990;BME280;65924;47.250;11.332;2023-04-24T03:24:21;94030.79;;;12.40;74.76
76990;BME280;65924;47.250;11.332;2023-04-24T03:25:01;94031.11;;;12.41;74.62